sensor_id;sensor_type;location;lat;lon;timestamp;P1;durP1;ratioP1;P2;durP2;ratioP2
46036;SDS011;31769;49.304;8.428;2022-09-09T00:04:48;2.35;;;1.73;;
46036;SDS011;31769;49.304;8.428;2022-09-09T00:08:02;5.38;;;2.15;;
46036;SDS011;31769;49.304;8.428;2022-09-09T00:11:07;6.57;;;1.85;;
46036;SDS011;31769;49.304;8.428;2022-09-09T00:17:48;6.22;;;1.95;;
46036;SDS011;31769;49.304;8.428;2022-09-09T00:27:42;5.07;;;2.28;;
46036;SDS011;31769;49.304;8.428;2022-09-09T00:30:48;4.25;;;2.30;;
46036;SDS011;31769;49.304;8.428;2022-09-09T00:33:49;5.93;;;2.00;;
46036;SDS011;31769;49.304;8.428;2022-09-09T00:36:52;5.88;;;1.95;;
46036;SDS011;31769;49.304;8.428;2022-09-09T00:39:57;7.82;;;2.40;;
46036;SDS011;31769;49.304;8.428;2022-09-09T00:49:32;4.38;;;2.20;;
46036;SDS011;31769;49.304;8.428;2022-09-09T00:56:13;4.93;;;1.80;;
46036;SDS011;31769;49.304;8.428;2022-09-09T00:59:25;4.85;;;1.80;;
46036;SDS011;31769;49.304;8.428;2022-09-09T01:12:11;7.88;;;1.90;;
46036;SDS011;31769;49.304;8.428;2022-09-09T01:15:19;7.22;;;1.90;;
46036;SDS011;31769;49.304;8.428;2022-09-09T01:18:32;4.93;;;1.52;;
46036;SDS011;31769;49.304;8.428;2022-09-09T01:28:28;6.35;;;1.70;;
46036;SDS011;31769;49.304;8.428;2022-09-09T01:31:37;7.43;;;1.60;;
46036;SDS011;31769;49.304;8.428;2022-09-09T01:34:43;7.55;;;1.75;;
46036;SDS011;31769;49.304;8.428;2022-09-09T01:37:44;6.13;;;1.42;;
46036;SDS011;31769;49.304;8.428;2022-09-09T01:40:45;6.35;;;1.60;;
46036;SDS011;31769;49.304;8.428;2022-09-09T01:43:47;5.88;;;1.08;;
46036;SDS011;31769;49.304;8.428;2022-09-09T01:46:48;3.08;;;1.45;;
46036;SDS011;31769;49.304;8.428;2022-09-09T01:49:51;5.20;;;1.30;;
46036;SDS011;31769;49.304;8.428;2022-09-09T01:52:58;7.22;;;1.45;;
46036;SDS011;31769;49.304;8.428;2022-09-09T01:59:24;4.25;;;1.13;;
46036;SDS011;31769;49.304;8.428;2022-09-09T02:06:11;2.50;;;0.80;;
46036;SDS011;31769;49.304;8.428;2022-09-09T02:09:26;7.18;;;0.82;;
46036;SDS011;31769;49.304;8.428;2022-09-09T02:12:30;2.83;;;0.70;;
46036;SDS011;31769;49.304;8.428;2022-09-09T02:15:40;6.35;;;0.77;;
46036;SDS011;31769;49.304;8.428;2022-09-09T02:18:48;3.38;;;0.80;;
46036;SDS011;31769;49.304;8.428;2022-09-09T02:22:19;6.05;;;1.05;;
46036;SDS011;31769;49.304;8.428;2022-09-09T02:25:23;5.50;;;1.00;;
46036;SDS011;31769;49.304;8.428;2022-09-09T02:31:32;6.35;;;0.90;;
46036;SDS011;31769;49.304;8.428;2022-09-09T02:34:41;4.82;;;0.80;;
46036;SDS011;31769;49.304;8.428;2022-09-09T02:37:48;5.65;;;1.00;;
46036;SDS011;31769;49.304;8.428;2022-09-09T02:40:52;3.13;;;0.88;;
46036;SDS011;31769;49.304;8.428;2022-09-09T02:43:53;5.57;;;0.70;;
46036;SDS011;31769;49.304;8.428;2022-09-09T02:57:03;2.97;;;0.90;;
46036;SDS011;31769;49.304;8.428;2022-09-09T03:00:26;5.25;;;0.85;;
46036;SDS011;31769;49.304;8.428;2022-09-09T03:03:31;5.45;;;1.13;;
46036;SDS011;31769;49.304;8.428;2022-09-09T03:06:35;3.33;;;0.68;;
46036;SDS011;31769;49.304;8.428;2022-09-09T03:09:46;7.25;;;0.70;;
46036;SDS011;31769;49.304;8.428;2022-09-09T03:12:46;3.90;;;0.90;;
46036;SDS011;31769;49.304;8.428;2022-09-09T03:15:47;2.35;;;0.85;;
46036;SDS011;31769;49.304;8.428;2022-09-09T03:18:51;2.38;;;0.60;;
46036;SDS011;31769;49.304;8.428;2022-09-09T03:21:53;6.75;;;0.93;;
46036;SDS011;31769;49.304;8.428;2022-09-09T03:24:54;5.32;;;0.88;;
46036;SDS011;31769;49.304;8.428;2022-09-09T03:27:56;4.72;;;0.80;;
46036;SDS011;31769;49.304;8.428;2022-09-09T03:31:01;4.55;;;0.90;;
46036;SDS011;31769;49.304;8.428;2022-09-09T03:34:08;4.57;;;0.85;;
46036;SDS011;31769;49.304;8.428;2022-09-09T03:37:10;4.90;;;0.88;;
46036;SDS011;31769;49.304;8.428;2022-09-09T03:40:11;3.50;;;0.60;;
46036;SDS011;31769;49.304;8.428;2022-09-09T03:43:13;3.88;;;0.35;;
46036;SDS011;31769;49.304;8.428;2022-09-09T03:46:17;4.60;;;0.60;;
46036;SDS011;31769;49.304;8.428;2022-09-09T03:49:19;2.47;;;0.32;;
46036;SDS011;31769;49.304;8.428;2022-09-09T03:52:21;8.50;;;0.40;;
46036;SDS011;31769;49.304;8.428;2022-09-09T03:55:26;5.63;;;0.50;;
46036;SDS011;31769;49.304;8.428;2022-09-09T03:58:27;3.83;;;0.22;;
46036;SDS011;31769;49.304;8.428;2022-09-09T04:01:33;6.35;;;0.57;;
46036;SDS011;31769;49.304;8.428;2022-09-09T04:04:35;4.55;;;0.32;;
46036;SDS011;31769;49.304;8.428;2022-09-09T04:07:59;2.38;;;0.50;;
46036;SDS011;31769;49.304;8.428;2022-09-09T04:11:01;5.97;;;0.40;;
46036;SDS011;31769;49.304;8.428;2022-09-09T04:14:07;6.20;;;0.40;;
46036;SDS011;31769;49.304;8.428;2022-09-09T04:17:08;4.28;;;0.50;;
46036;SDS011;31769;49.304;8.428;2022-09-09T04:20:09;3.65;;;0.32;;
46036;SDS011;31769;49.304;8.428;2022-09-09T04:23:12;3.47;;;0.50;;
46036;SDS011;31769;49.304;8.428;2022-09-09T04:26:14;5.10;;;0.88;;
46036;SDS011;31769;49.304;8.428;2022-09-09T04:29:14;4.38;;;0.60;;
46036;SDS011;31769;49.304;8.428;2022-09-09T08:06:05;5.75;;;0.63;;
46036;SDS011;31769;49.304;8.428;2022-09-09T08:09:08;4.32;;;0.70;;
46036;SDS011;31769;49.304;8.428;2022-09-09T08:12:10;5.45;;;0.65;;
46036;SDS011;31769;49.304;8.428;2022-09-09T08:15:13;5.90;;;0.65;;
46036;SDS011;31769;49.304;8.428;2022-09-09T08:18:14;4.80;;;0.40;;
46036;SDS011;31769;49.304;8.428;2022-09-09T08:21:16;3.15;;;0.30;;
46036;SDS011;31769;49.304;8.428;2022-09-09T08:24:19;5.90;;;0.43;;
46036;SDS011;31769;49.304;8.428;2022-09-09T08:27:22;8.32;;;0.63;;
46036;SDS011;31769;49.304;8.428;2022-09-09T08:30:24;2.85;;;0.40;;
46036;SDS011;31769;49.304;8.428;2022-09-09T08:33:25;2.97;;;0.45;;
46036;SDS011;31769;49.304;8.428;2022-09-09T08:36:27;3.50;;;0.70;;
46036;SDS011;31769;49.304;8.428;2022-09-09T08:39:29;4.00;;;0.63;;
46036;SDS011;31769;49.304;8.428;2022-09-09T08:42:35;3.15;;;0.73;;
46036;SDS011;31769;49.304;8.428;2022-09-09T08:45:46;3.85;;;0.85;;
46036;SDS011;31769;49.304;8.428;2022-09-09T08:52:02;7.95;;;0.70;;
46036;SDS011;31769;49.304;8.428;2022-09-09T08:58:28;6.28;;;0.88;;
46036;SDS011;31769;49.304;8.428;2022-09-09T09:01:41;3.80;;;0.80;;
46036;SDS011;31769;49.304;8.428;2022-09-09T09:08:32;3.58;;;0.82;;
46036;SDS011;31769;49.304;8.428;2022-09-09T09:11:45;5.70;;;1.00;;
46036;SDS011;31769;49.304;8.428;2022-09-09T09:15:01;3.88;;;0.90;;
46036;SDS011;31769;49.304;8.428;2022-09-09T09:18:03;5.80;;;0.95;;
46036;SDS011;31769;49.304;8.428;2022-09-09T09:21:27;4.07;;;0.80;;
46036;SDS011;31769;49.304;8.428;2022-09-09T09:24:34;5.00;;;0.93;;
46036;SDS011;31769;49.304;8.428;2022-09-09T09:31:27;5.22;;;0.88;;
46036;SDS011;31769;49.304;8.428;2022-09-09T09:34:28;5.18;;;0.73;;
46036;SDS011;31769;49.304;8.428;2022-09-09T09:37:33;4.82;;;1.17;;
46036;SDS011;31769;49.304;8.428;2022-09-09T09:40:47;6.88;;;1.25;;
46036;SDS011;31769;49.304;8.428;2022-09-09T09:43:53;6.35;;;1.15;;
46036;SDS011;31769;49.304;8.428;2022-09-09T09:47:13;11.13;;;1.35;;
46036;SDS011;31769;49.304;8.428;2022-09-09T09:50:26;8.90;;;1.33;;
46036;SDS011;31769;49.304;8.428;2022-09-09T09:53:28;7.35;;;1.05;;
46036;SDS011;31769;49.304;8.428;2022-09-09T09:56:32;5.22;;;0.98;;
46036;SDS011;31769;49.304;8.428;2022-09-09T09:59:35;6.88;;;1.48;;
46036;SDS011;31769;49.304;8.428;2022-09-09T10:02:42;4.68;;;0.88;;
46036;SDS011;31769;49.304;8.428;2022-09-09T10:05:48;5.32;;;1.27;;
46036;SDS011;31769;49.304;8.428;2022-09-09T10:08:50;5.05;;;0.82;;
46036;SDS011;31769;49.304;8.428;2022-09-09T10:18:34;7.95;;;1.40;;
46036;SDS011;31769;49.304;8.428;2022-09-09T10:28:36;7.10;;;1.20;;
46036;SDS011;31769;49.304;8.428;2022-09-09T10:35:18;3.40;;;0.75;;
46036;SDS011;31769;49.304;8.428;2022-09-09T10:38:42;3.53;;;0.70;;
46036;SDS011;31769;49.304;8.428;2022-09-09T10:41:51;4.22;;;0.90;;
46036;SDS011;31769;49.304;8.428;2022-09-09T10:45:02;4.20;;;0.68;;
46036;SDS011;31769;49.304;8.428;2022-09-09T10:48:25;8.27;;;0.98;;
46036;SDS011;31769;49.304;8.428;2022-09-09T10:51:41;6.85;;;0.95;;
46036;SDS011;31769;49.304;8.428;2022-09-09T10:58:32;4.88;;;0.70;;
46036;SDS011;31769;49.304;8.428;2022-09-09T11:01:45;5.18;;;0.80;;
46036;SDS011;31769;49.304;8.428;2022-09-09T11:05:10;3.92;;;0.77;;
46036;SDS011;31769;49.304;8.428;2022-09-09T11:08:19;6.10;;;0.68;;
46036;SDS011;31769;49.304;8.428;2022-09-09T11:11:26;4.35;;;0.63;;
46036;SDS011;31769;49.304;8.428;2022-09-09T11:14:32;4.07;;;0.70;;
46036;SDS011;31769;49.304;8.428;2022-09-09T11:17:41;10.18;;;0.82;;
46036;SDS011;31769;49.304;8.428;2022-09-09T11:23:50;5.15;;;0.82;;
46036;SDS011;31769;49.304;8.428;2022-09-09T11:26:59;4.85;;;0.70;;
46036;SDS011;31769;49.304;8.428;2022-09-09T11:30:20;6.07;;;0.88;;
46036;SDS011;31769;49.304;8.428;2022-09-09T11:33:46;3.15;;;0.75;;
46036;SDS011;31769;49.304;8.428;2022-09-09T11:40:24;3.63;;;0.55;;
46036;SDS011;31769;49.304;8.428;2022-09-09T11:43:38;6.70;;;0.90;;
46036;SDS011;31769;49.304;8.428;2022-09-09T11:46:49;3.80;;;0.50;;
46036;SDS011;31769;49.304;8.428;2022-09-09T11:49:52;4.18;;;0.50;;
46036;SDS011;31769;49.304;8.428;2022-09-09T11:53:05;4.15;;;0.63;;
46036;SDS011;31769;49.304;8.428;2022-09-09T11:57:05;4.47;;;0.80;;
46036;SDS011;31769;49.304;8.428;2022-09-09T11:59:50;4.00;;;0.57;;
46036;SDS011;31769;49.304;8.428;2022-09-09T12:02:52;5.75;;;0.77;;
46036;SDS011;31769;49.304;8.428;2022-09-09T12:05:53;1.83;;;0.50;;
46036;SDS011;31769;49.304;8.428;2022-09-09T12:08:55;3.03;;;0.50;;
46036;SDS011;31769;49.304;8.428;2022-09-09T12:18:24;2.15;;;0.20;;
46036;SDS011;31769;49.304;8.428;2022-09-09T12:37:37;2.55;;;0.38;;
46036;SDS011;31769;49.304;8.428;2022-09-09T12:40:41;1.52;;;0.28;;
46036;SDS011;31769;49.304;8.428;2022-09-09T12:43:42;3.70;;;0.40;;
46036;SDS011;31769;49.304;8.428;2022-09-09T12:46:43;5.32;;;0.70;;
46036;SDS011;31769;49.304;8.428;2022-09-09T12:49:46;5.22;;;0.68;;
46036;SDS011;31769;49.304;8.428;2022-09-09T12:52:49;4.38;;;0.70;;
46036;SDS011;31769;49.304;8.428;2022-09-09T12:55:55;4.65;;;0.60;;
46036;SDS011;31769;49.304;8.428;2022-09-09T12:58:58;6.75;;;0.98;;
46036;SDS011;31769;49.304;8.428;2022-09-09T13:02:00;5.40;;;0.77;;
46036;SDS011;31769;49.304;8.428;2022-09-09T13:05:18;6.70;;;1.00;;
46036;SDS011;31769;49.304;8.428;2022-09-09T13:08:34;4.82;;;0.98;;
46036;SDS011;31769;49.304;8.428;2022-09-09T13:11:35;3.95;;;0.47;;
46036;SDS011;31769;49.304;8.428;2022-09-09T13:14:39;1.88;;;0.50;;
46036;SDS011;31769;49.304;8.428;2022-09-09T13:17:54;2.08;;;0.43;;
46036;SDS011;31769;49.304;8.428;2022-09-09T13:21:03;3.78;;;0.32;;
46036;SDS011;31769;49.304;8.428;2022-09-09T13:24:05;6.65;;;0.50;;
46036;SDS011;31769;49.304;8.428;2022-09-09T13:27:28;5.85;;;0.25;;
46036;SDS011;31769;49.304;8.428;2022-09-09T13:30:35;3.20;;;0.30;;
46036;SDS011;31769;49.304;8.428;2022-09-09T13:33:40;0.52;;;0.10;;
46036;SDS011;31769;49.304;8.428;2022-09-09T13:36:40;2.05;;;0.20;;
46036;SDS011;31769;49.304;8.428;2022-09-09T13:39:50;1.02;;;0.17;;
46036;SDS011;31769;49.304;8.428;2022-09-09T13:42:56;1.95;;;0.10;;
46036;SDS011;31769;49.304;8.428;2022-09-09T13:45:59;1.67;;;0.10;;
46036;SDS011;31769;49.304;8.428;2022-09-09T13:52:18;0.88;;;0.15;;
46036;SDS011;31769;49.304;8.428;2022-09-09T13:55:20;2.20;;;0.03;;
46036;SDS011;31769;49.304;8.428;2022-09-09T13:58:23;1.50;;;0.15;;
46036;SDS011;31769;49.304;8.428;2022-09-09T14:01:25;1.02;;;0.00;;
46036;SDS011;31769;49.304;8.428;2022-09-09T14:04:27;1.98;;;0.03;;
46036;SDS011;31769;49.304;8.428;2022-09-09T14:07:28;1.05;;;0.10;;
46036;SDS011;31769;49.304;8.428;2022-09-09T14:10:29;2.25;;;0.17;;
46036;SDS011;31769;49.304;8.428;2022-09-09T14:13:29;1.55;;;0.17;;
46036;SDS011;31769;49.304;8.428;2022-09-09T14:16:30;2.25;;;0.13;;
46036;SDS011;31769;49.304;8.428;2022-09-09T14:19:31;2.17;;;0.15;;
46036;SDS011;31769;49.304;8.428;2022-09-09T14:22:31;1.98;;;0.30;;
46036;SDS011;31769;49.304;8.428;2022-09-09T14:25:32;3.10;;;0.93;;
46036;SDS011;31769;49.304;8.428;2022-09-09T14:28:34;2.63;;;0.28;;
46036;SDS011;31769;49.304;8.428;2022-09-09T14:31:35;1.63;;;0.30;;
46036;SDS011;31769;49.304;8.428;2022-09-09T14:34:36;1.83;;;0.20;;
46036;SDS011;31769;49.304;8.428;2022-09-09T14:37:37;3.30;;;0.40;;
46036;SDS011;31769;49.304;8.428;2022-09-09T14:40:39;1.95;;;0.00;;
46036;SDS011;31769;49.304;8.428;2022-09-09T14:43:40;3.70;;;0.22;;
46036;SDS011;31769;49.304;8.428;2022-09-09T14:46:40;2.50;;;0.30;;
46036;SDS011;31769;49.304;8.428;2022-09-09T14:49:42;2.20;;;0.35;;
46036;SDS011;31769;49.304;8.428;2022-09-09T14:52:43;3.70;;;0.50;;
46036;SDS011;31769;49.304;8.428;2022-09-09T14:55:44;2.53;;;0.40;;
46036;SDS011;31769;49.304;8.428;2022-09-09T14:58:46;1.90;;;0.40;;
46036;SDS011;31769;49.304;8.428;2022-09-09T15:01:48;3.63;;;0.50;;
46036;SDS011;31769;49.304;8.428;2022-09-09T15:04:49;2.97;;;0.38;;
46036;SDS011;31769;49.304;8.428;2022-09-09T15:07:53;3.85;;;0.30;;
46036;SDS011;31769;49.304;8.428;2022-09-09T15:11:00;4.75;;;0.60;;
46036;SDS011;31769;49.304;8.428;2022-09-09T15:14:03;3.42;;;0.40;;
46036;SDS011;31769;49.304;8.428;2022-09-09T15:17:05;1.67;;;0.30;;
46036;SDS011;31769;49.304;8.428;2022-09-09T15:20:05;2.38;;;0.32;;
46036;SDS011;31769;49.304;8.428;2022-09-09T15:23:07;1.45;;;0.32;;
46036;SDS011;31769;49.304;8.428;2022-09-09T15:26:09;2.30;;;0.50;;
46036;SDS011;31769;49.304;8.428;2022-09-09T15:29:10;3.85;;;0.20;;
46036;SDS011;31769;49.304;8.428;2022-09-09T15:32:11;1.70;;;0.30;;
46036;SDS011;31769;49.304;8.428;2022-09-09T15:35:12;3.63;;;0.35;;
46036;SDS011;31769;49.304;8.428;2022-09-09T15:38:13;2.35;;;0.20;;
46036;SDS011;31769;49.304;8.428;2022-09-09T15:41:16;1.25;;;0.10;;
46036;SDS011;31769;49.304;8.428;2022-09-09T15:44:18;2.55;;;0.10;;
46036;SDS011;31769;49.304;8.428;2022-09-09T15:47:19;2.10;;;0.10;;
46036;SDS011;31769;49.304;8.428;2022-09-09T15:50:20;1.02;;;0.00;;
46036;SDS011;31769;49.304;8.428;2022-09-09T15:53:21;1.48;;;1.02;;
46036;SDS011;31769;49.304;8.428;2022-09-09T15:56:22;0.90;;;0.00;;
46036;SDS011;31769;49.304;8.428;2022-09-09T15:59:24;2.55;;;0.08;;
46036;SDS011;31769;49.304;8.428;2022-09-09T16:02:27;0.77;;;0.10;;
46036;SDS011;31769;49.304;8.428;2022-09-09T16:05:28;0.70;;;0.10;;
46036;SDS011;31769;49.304;8.428;2022-09-09T16:12:51;1.57;;;0.20;;
46036;SDS011;31769;49.304;8.428;2022-09-09T16:15:56;2.10;;;0.22;;
46036;SDS011;31769;49.304;8.428;2022-09-09T16:18:57;1.75;;;0.10;;
46036;SDS011;31769;49.304;8.428;2022-09-09T16:22:09;1.98;;;0.28;;
46036;SDS011;31769;49.304;8.428;2022-09-09T16:25:11;1.63;;;0.10;;
46036;SDS011;31769;49.304;8.428;2022-09-09T16:28:12;2.33;;;0.30;;
46036;SDS011;31769;49.304;8.428;2022-09-09T16:31:14;2.47;;;0.30;;
46036;SDS011;31769;49.304;8.428;2022-09-09T16:34:18;1.60;;;0.25;;
46036;SDS011;31769;49.304;8.428;2022-09-09T16:37:19;3.78;;;0.45;;
46036;SDS011;31769;49.304;8.428;2022-09-09T16:40:20;3.10;;;0.50;;
46036;SDS011;31769;49.304;8.428;2022-09-09T16:43:20;4.68;;;0.60;;
46036;SDS011;31769;49.304;8.428;2022-09-09T16:46:21;2.72;;;0.57;;
46036;SDS011;31769;49.304;8.428;2022-09-09T16:49:24;5.25;;;0.50;;
46036;SDS011;31769;49.304;8.428;2022-09-09T16:52:24;2.35;;;0.52;;
46036;SDS011;31769;49.304;8.428;2022-09-09T16:55:25;3.30;;;0.80;;
46036;SDS011;31769;49.304;8.428;2022-09-09T16:58:26;3.10;;;0.80;;
46036;SDS011;31769;49.304;8.428;2022-09-09T17:01:31;5.80;;;0.63;;
46036;SDS011;31769;49.304;8.428;2022-09-09T17:04:33;2.53;;;0.50;;
46036;SDS011;31769;49.304;8.428;2022-09-09T17:07:34;3.13;;;0.35;;
46036;SDS011;31769;49.304;8.428;2022-09-09T17:10:40;1.65;;;0.45;;
46036;SDS011;31769;49.304;8.428;2022-09-09T17:13:42;3.03;;;0.30;;
46036;SDS011;31769;49.304;8.428;2022-09-09T17:16:44;1.17;;;0.25;;
46036;SDS011;31769;49.304;8.428;2022-09-09T17:19:46;4.20;;;0.40;;
46036;SDS011;31769;49.304;8.428;2022-09-09T17:22:47;1.83;;;0.50;;
46036;SDS011;31769;49.304;8.428;2022-09-09T17:25:58;1.02;;;0.40;;
46036;SDS011;31769;49.304;8.428;2022-09-09T17:29:00;3.42;;;0.50;;
46036;SDS011;31769;49.304;8.428;2022-09-09T17:32:02;4.45;;;0.60;;
46036;SDS011;31769;49.304;8.428;2022-09-09T17:35:05;4.07;;;0.90;;
46036;SDS011;31769;49.304;8.428;2022-09-09T17:38:06;3.65;;;0.50;;
46036;SDS011;31769;49.304;8.428;2022-09-09T17:41:08;2.03;;;0.60;;
46036;SDS011;31769;49.304;8.428;2022-09-09T17:44:11;1.98;;;0.68;;
46036;SDS011;31769;49.304;8.428;2022-09-09T17:47:12;1.35;;;0.40;;
46036;SDS011;31769;49.304;8.428;2022-09-09T17:50:13;4.75;;;0.65;;
46036;SDS011;31769;49.304;8.428;2022-09-09T17:53:13;3.75;;;0.82;;
46036;SDS011;31769;49.304;8.428;2022-09-09T17:56:16;4.07;;;1.38;;
46036;SDS011;31769;49.304;8.428;2022-09-09T17:59:22;3.42;;;0.60;;
46036;SDS011;31769;49.304;8.428;2022-09-09T18:02:24;1.85;;;0.57;;
46036;SDS011;31769;49.304;8.428;2022-09-09T18:05:24;3.42;;;0.90;;
46036;SDS011;31769;49.304;8.428;2022-09-09T18:08:25;4.20;;;0.60;;
46036;SDS011;31769;49.304;8.428;2022-09-09T18:11:29;4.03;;;0.93;;
46036;SDS011;31769;49.304;8.428;2022-09-09T18:14:32;3.05;;;0.90;;
46036;SDS011;31769;49.304;8.428;2022-09-09T18:17:33;3.15;;;0.70;;
46036;SDS011;31769;49.304;8.428;2022-09-09T18:20:33;2.95;;;0.80;;
46036;SDS011;31769;49.304;8.428;2022-09-09T18:23:35;3.45;;;0.50;;
46036;SDS011;31769;49.304;8.428;2022-09-09T18:26:37;2.85;;;0.38;;
46036;SDS011;31769;49.304;8.428;2022-09-09T18:29:39;7.43;;;0.80;;
46036;SDS011;31769;49.304;8.428;2022-09-09T18:32:39;6.35;;;0.70;;
46036;SDS011;31769;49.304;8.428;2022-09-09T18:35:40;8.02;;;0.63;;
46036;SDS011;31769;49.304;8.428;2022-09-09T18:38:41;7.68;;;0.60;;
46036;SDS011;31769;49.304;8.428;2022-09-09T18:41:43;4.90;;;0.60;;
46036;SDS011;31769;49.304;8.428;2022-09-09T18:44:48;3.85;;;0.40;;
46036;SDS011;31769;49.304;8.428;2022-09-09T18:47:48;3.08;;;0.30;;
46036;SDS011;31769;49.304;8.428;2022-09-09T18:50:49;1.40;;;0.40;;
46036;SDS011;31769;49.304;8.428;2022-09-09T18:53:51;7.13;;;0.77;;
46036;SDS011;31769;49.304;8.428;2022-09-09T18:56:53;3.50;;;0.80;;
46036;SDS011;31769;49.304;8.428;2022-09-09T18:59:55;3.75;;;0.93;;
46036;SDS011;31769;49.304;8.428;2022-09-09T19:02:55;3.63;;;0.47;;
46036;SDS011;31769;49.304;8.428;2022-09-09T19:06:00;5.18;;;0.88;;
46036;SDS011;31769;49.304;8.428;2022-09-09T19:09:03;3.88;;;0.68;;
46036;SDS011;31769;49.304;8.428;2022-09-09T19:12:04;2.97;;;0.70;;
46036;SDS011;31769;49.304;8.428;2022-09-09T19:15:05;5.38;;;0.75;;
46036;SDS011;31769;49.304;8.428;2022-09-09T19:18:06;3.85;;;0.60;;
46036;SDS011;31769;49.304;8.428;2022-09-09T19:21:11;3.70;;;0.60;;
46036;SDS011;31769;49.304;8.428;2022-09-09T19:24:19;6.88;;;0.68;;
46036;SDS011;31769;49.304;8.428;2022-09-09T19:27:22;2.40;;;0.60;;
46036;SDS011;31769;49.304;8.428;2022-09-09T19:30:23;6.00;;;0.90;;
46036;SDS011;31769;49.304;8.428;2022-09-09T19:33:26;4.50;;;0.70;;
46036;SDS011;31769;49.304;8.428;2022-09-09T19:36:27;1.70;;;0.70;;
46036;SDS011;31769;49.304;8.428;2022-09-09T19:39:28;3.63;;;0.50;;
46036;SDS011;31769;49.304;8.428;2022-09-09T19:42:29;2.20;;;0.52;;
46036;SDS011;31769;49.304;8.428;2022-09-09T19:45:31;3.22;;;0.65;;
46036;SDS011;31769;49.304;8.428;2022-09-09T19:48:35;3.75;;;0.50;;
46036;SDS011;31769;49.304;8.428;2022-09-09T19:51:37;2.80;;;0.63;;
46036;SDS011;31769;49.304;8.428;2022-09-09T19:54:38;6.20;;;1.17;;
46036;SDS011;31769;49.304;8.428;2022-09-09T19:57:39;4.65;;;0.82;;
46036;SDS011;31769;49.304;8.428;2022-09-09T20:00:40;5.97;;;0.65;;
46036;SDS011;31769;49.304;8.428;2022-09-09T20:03:41;3.72;;;0.73;;
46036;SDS011;31769;49.304;8.428;2022-09-09T20:06:43;2.67;;;0.73;;
46036;SDS011;31769;49.304;8.428;2022-09-09T20:09:44;2.67;;;0.75;;
46036;SDS011;31769;49.304;8.428;2022-09-09T20:12:45;5.07;;;0.70;;
46036;SDS011;31769;49.304;8.428;2022-09-09T20:15:46;2.90;;;0.90;;
46036;SDS011;31769;49.304;8.428;2022-09-09T20:18:58;3.90;;;0.73;;
46036;SDS011;31769;49.304;8.428;2022-09-09T20:22:00;1.33;;;0.40;;
46036;SDS011;31769;49.304;8.428;2022-09-09T20:25:00;1.55;;;0.60;;
46036;SDS011;31769;49.304;8.428;2022-09-09T20:28:01;1.63;;;0.60;;
46036;SDS011;31769;49.304;8.428;2022-09-09T20:31:07;4.47;;;0.90;;
46036;SDS011;31769;49.304;8.428;2022-09-09T20:34:12;1.60;;;0.60;;
46036;SDS011;31769;49.304;8.428;2022-09-09T20:37:15;3.15;;;0.60;;
46036;SDS011;31769;49.304;8.428;2022-09-09T20:40:16;3.45;;;0.82;;
46036;SDS011;31769;49.304;8.428;2022-09-09T20:43:19;5.10;;;1.00;;
46036;SDS011;31769;49.304;8.428;2022-09-09T20:46:21;4.63;;;0.93;;
46036;SDS011;31769;49.304;8.428;2022-09-09T20:49:23;4.60;;;0.90;;
46036;SDS011;31769;49.304;8.428;2022-09-09T20:52:24;4.32;;;1.30;;
46036;SDS011;31769;49.304;8.428;2022-09-09T20:55:25;3.47;;;0.77;;
46036;SDS011;31769;49.304;8.428;2022-09-09T20:58:26;4.30;;;0.90;;
46036;SDS011;31769;49.304;8.428;2022-09-09T21:01:27;3.25;;;0.82;;
46036;SDS011;31769;49.304;8.428;2022-09-09T21:04:27;5.38;;;1.05;;
46036;SDS011;31769;49.304;8.428;2022-09-09T21:07:28;4.55;;;1.00;;
46036;SDS011;31769;49.304;8.428;2022-09-09T21:10:29;3.28;;;0.77;;
46036;SDS011;31769;49.304;8.428;2022-09-09T21:13:30;6.07;;;0.88;;
46036;SDS011;31769;49.304;8.428;2022-09-09T21:16:33;5.38;;;0.90;;
46036;SDS011;31769;49.304;8.428;2022-09-09T21:19:33;3.80;;;0.85;;
46036;SDS011;31769;49.304;8.428;2022-09-09T21:22:34;4.63;;;0.82;;
46036;SDS011;31769;49.304;8.428;2022-09-09T21:25:35;4.38;;;0.80;;
46036;SDS011;31769;49.304;8.428;2022-09-09T21:28:36;5.40;;;1.10;;
46036;SDS011;31769;49.304;8.428;2022-09-09T21:31:37;2.58;;;0.52;;
46036;SDS011;31769;49.304;8.428;2022-09-09T21:34:37;5.32;;;0.50;;
46036;SDS011;31769;49.304;8.428;2022-09-09T21:37:39;4.38;;;0.80;;
46036;SDS011;31769;49.304;8.428;2022-09-09T21:40:40;4.18;;;0.80;;
46036;SDS011;31769;49.304;8.428;2022-09-09T21:43:41;4.80;;;0.50;;
46036;SDS011;31769;49.304;8.428;2022-09-09T21:46:43;3.13;;;0.73;;
46036;SDS011;31769;49.304;8.428;2022-09-09T21:49:44;3.63;;;0.90;;
46036;SDS011;31769;49.304;8.428;2022-09-09T21:52:44;4.85;;;0.70;;
46036;SDS011;31769;49.304;8.428;2022-09-09T21:55:46;3.40;;;0.85;;
46036;SDS011;31769;49.304;8.428;2022-09-09T21:58:52;3.25;;;0.98;;
46036;SDS011;31769;49.304;8.428;2022-09-09T22:01:55;4.45;;;1.25;;
46036;SDS011;31769;49.304;8.428;2022-09-09T22:04:56;2.15;;;1.10;;
46036;SDS011;31769;49.304;8.428;2022-09-09T22:07:56;4.88;;;1.20;;
46036;SDS011;31769;49.304;8.428;2022-09-09T22:11:03;5.03;;;1.50;;
46036;SDS011;31769;49.304;8.428;2022-09-09T22:14:06;5.97;;;1.80;;
46036;SDS011;31769;49.304;8.428;2022-09-09T22:17:07;4.35;;;1.67;;
46036;SDS011;31769;49.304;8.428;2022-09-09T22:20:08;6.95;;;1.77;;
46036;SDS011;31769;49.304;8.428;2022-09-09T22:23:11;3.40;;;1.48;;
46036;SDS011;31769;49.304;8.428;2022-09-09T22:26:12;6.00;;;1.55;;
46036;SDS011;31769;49.304;8.428;2022-09-09T22:29:14;4.45;;;1.50;;
46036;SDS011;31769;49.304;8.428;2022-09-09T22:32:14;5.13;;;1.95;;
46036;SDS011;31769;49.304;8.428;2022-09-09T22:35:15;7.38;;;1.70;;
46036;SDS011;31769;49.304;8.428;2022-09-09T22:38:16;7.10;;;1.63;;
46036;SDS011;31769;49.304;8.428;2022-09-09T22:41:17;8.05;;;1.35;;
46036;SDS011;31769;49.304;8.428;2022-09-09T22:44:19;2.95;;;1.20;;
46036;SDS011;31769;49.304;8.428;2022-09-09T22:47:19;8.27;;;1.25;;
46036;SDS011;31769;49.304;8.428;2022-09-09T22:50:21;4.05;;;1.13;;
46036;SDS011;31769;49.304;8.428;2022-09-09T22:53:21;5.82;;;1.23;;
46036;SDS011;31769;49.304;8.428;2022-09-09T22:56:22;4.70;;;1.27;;
46036;SDS011;31769;49.304;8.428;2022-09-09T22:59:23;3.75;;;1.00;;
46036;SDS011;31769;49.304;8.428;2022-09-09T23:02:23;6.13;;;1.02;;
46036;SDS011;31769;49.304;8.428;2022-09-09T23:05:25;3.45;;;0.82;;
46036;SDS011;31769;49.304;8.428;2022-09-09T23:08:32;7.30;;;1.00;;
46036;SDS011;31769;49.304;8.428;2022-09-09T23:11:35;2.65;;;0.93;;
46036;SDS011;31769;49.304;8.428;2022-09-09T23:14:36;4.00;;;0.90;;
46036;SDS011;31769;49.304;8.428;2022-09-09T23:17:38;3.78;;;0.93;;
46036;SDS011;31769;49.304;8.428;2022-09-09T23:20:40;7.82;;;1.20;;
46036;SDS011;31769;49.304;8.428;2022-09-09T23:23:42;4.28;;;1.02;;
46036;SDS011;31769;49.304;8.428;2022-09-09T23:26:43;4.05;;;1.05;;
46036;SDS011;31769;49.304;8.428;2022-09-09T23:29:44;4.50;;;0.88;;
46036;SDS011;31769;49.304;8.428;2022-09-09T23:32:47;5.03;;;0.82;;
46036;SDS011;31769;49.304;8.428;2022-09-09T23:35:56;2.17;;;0.77;;
46036;SDS011;31769;49.304;8.428;2022-09-09T23:39:01;2.92;;;0.80;;
46036;SDS011;31769;49.304;8.428;2022-09-09T23:42:04;6.43;;;0.93;;
46036;SDS011;31769;49.304;8.428;2022-09-09T23:45:07;2.47;;;0.40;;
46036;SDS011;31769;49.304;8.428;2022-09-09T23:48:08;3.33;;;0.60;;
46036;SDS011;31769;49.304;8.428;2022-09-09T23:51:10;3.70;;;0.68;;
46036;SDS011;31769;49.304;8.428;2022-09-09T23:54:16;2.78;;;0.40;;
46036;SDS011;31769;49.304;8.428;2022-09-09T23:57:18;2.90;;;0.55;;
